Time;durP1;ratioP1;P1;durP2;ratioP2;P2;SDS_P1;SDS_P2;PMS_P1;PMS_P2;Temp;Humidity;BMP_temperature;BMP_pressure;BME280_temperature;BME280_humidity;BME280_pressure;Samples;Min_cycle;Max_cycle;Signal;HPM_P1;HPM_P2
2023/09/29 00:00:48;;;;;;;18.85;5.47;;;;;;;;;;4902398;29;20056;-79
2023/09/29 00:03:15;;;;;;;18.10;5.28;;;;;;;;;;4902253;29;20035;-79
2023/09/29 00:05:42;;;;;;;12.73;4.90;;;;;;;;;;4902557;29;20032;-79
2023/09/29 00:08:09;;;;;;;14.68;4.65;;;;;;;;;;4902323;29;20039;-79
2023/09/29 00:10:39;;;;;;;15.68;5.07;;;;;;;;;;4903446;29;20058;-79
2023/09/29 00:13:05;;;;;;;17.02;4.78;;;;;;;;;;4902755;29;20044;-79
2023/09/29 00:15:33;;;;;;;15.02;4.82;;;;;;;;;;4904385;29;20472;-79
2023/09/29 00:17:59;;;;;;;15.18;5.13;;;;;;;;;;4907012;29;20075;-79
2023/09/29 00:20:25;;;;;;;19.88;5.60;;;;;;;;;;4902602;29;20032;-79
2023/09/29 00:22:54;;;;;;;20.27;5.55;;;;;;;;;;4902605;29;20365;-79
2023/09/29 00:25:21;;;;;;;14.45;5.15;;;;;;;;;;4902434;29;20033;-79
2023/09/29 00:27:47;;;;;;;15.63;5.10;;;;;;;;;;4902295;29;20083;-79
2023/09/29 00:30:14;;;;;;;15.40;4.95;;;;;;;;;;4902516;29;20056;-79
2023/09/29 00:32:48;;;;;;;17.45;5.10;;;;;;;;;;4902670;29;20027;-79
2023/09/29 00:37:49;;;;;;;16.67;3.88;;;;;;;;;;4902670;29;20383;-79
2023/09/29 00:40:15;;;;;;;14.93;5.03;;;;;;;;;;4903056;29;20032;-79
2023/09/29 00:42:44;;;;;;;13.88;4.57;;;;;;;;;;4902658;29;20120;-79
2023/09/29 00:45:11;;;;;;;14.63;4.82;;;;;;;;;;4902971;29;20041;-79
2023/09/29 00:47:38;;;;;;;15.40;4.55;;;;;;;;;;4902257;29;20025;-79
2023/09/29 00:50:09;;;;;;;12.40;4.05;;;;;;;;;;4901796;29;20028;-79
2023/09/29 00:52:37;;;;;;;9.93;3.72;;;;;;;;;;4901166;29;20123;-79
2023/09/29 00:55:05;;;;;;;15.07;4.10;;;;;;;;;;4900437;29;20054;-79
2023/09/29 00:57:33;;;;;;;14.75;4.18;;;;;;;;;;4900971;29;20067;-79
2023/09/29 01:00:00;;;;;;;11.77;3.90;;;;;;;;;;4900872;29;20365;-79
2023/09/29 01:02:26;;;;;;;18.08;4.50;;;;;;;;;;4901615;29;20080;-79
2023/09/29 01:04:53;;;;;;;16.00;4.20;;;;;;;;;;4901620;29;20036;-79
2023/09/29 01:07:19;;;;;;;14.55;4.28;;;;;;;;;;4903558;29;20025;-79
2023/09/29 01:09:45;;;;;;;20.90;3.92;;;;;;;;;;4902381;29;20032;-79
2023/09/29 01:12:25;;;;;;;13.95;3.95;;;;;;;;;;4903137;29;20056;-79
2023/09/29 01:14:51;;;;;;;17.50;4.00;;;;;;;;;;4902157;29;20085;-79
2023/09/29 01:17:18;;;;;;;16.23;3.65;;;;;;;;;;4901917;29;20033;-79
2023/09/29 01:19:44;;;;;;;14.80;4.30;;;;;;;;;;4901571;29;20035;-79
2023/09/29 01:22:10;;;;;;;16.23;3.92;;;;;;;;;;4901404;29;20100;-79
2023/09/29 01:24:36;;;;;;;12.65;3.78;;;;;;;;;;4901452;29;20040;-79
2023/09/29 01:27:02;;;;;;;14.07;3.80;;;;;;;;;;4901907;29;20036;-79
2023/09/29 01:29:28;;;;;;;11.57;3.78;;;;;;;;;;4901417;29;20029;-79
2023/09/29 01:31:54;;;;;;;18.48;3.88;;;;;;;;;;4900882;29;20036;-79
2023/09/29 01:34:20;;;;;;;11.13;3.53;;;;;;;;;;4900682;29;20029;-79
2023/09/29 01:36:48;;;;;;;12.55;3.55;;;;;;;;;;4900835;29;20060;-79
2023/09/29 01:39:14;;;;;;;13.57;4.13;;;;;;;;;;4900825;29;20032;-79
2023/09/29 01:41:43;;;;;;;13.57;4.38;;;;;;;;;;4900916;29;20029;-79
2023/09/29 01:44:09;;;;;;;13.77;4.13;;;;;;;;;;4901163;29;20475;-79
2023/09/29 01:46:36;;;;;;;12.38;3.72;;;;;;;;;;4900839;29;20025;-79
2023/09/29 01:49:02;;;;;;;13.23;3.33;;;;;;;;;;4900382;29;20029;-79
2023/09/29 01:51:30;;;;;;;14.85;3.78;;;;;;;;;;4900172;29;20156;-79
2023/09/29 01:53:57;;;;;;;15.52;3.67;;;;;;;;;;4900181;29;20024;-79
2023/09/29 01:56:23;;;;;;;18.15;3.83;;;;;;;;;;4900652;29;20024;-79
2023/09/29 01:58:50;;;;;;;16.20;3.70;;;;;;;;;;4899678;29;20063;-79
2023/09/29 02:01:16;;;;;;;13.48;4.03;;;;;;;;;;4900108;29;20387;-79
2023/09/29 02:03:48;;;;;;;13.52;4.28;;;;;;;;;;4900343;29;20033;-79
2023/09/29 02:06:15;;;;;;;11.35;3.85;;;;;;;;;;4899506;29;20467;-79
2023/09/29 02:08:42;;;;;;;14.98;4.10;;;;;;;;;;4899693;29;20076;-79
2023/09/29 02:11:08;;;;;;;16.70;4.05;;;;;;;;;;4899451;29;20076;-79
2023/09/29 02:13:35;;;;;;;15.85;4.10;;;;;;;;;;4901073;29;20031;-79
2023/09/29 02:16:05;;;;;;;8.77;3.50;;;;;;;;;;4899117;29;20036;-79
2023/09/29 02:18:31;;;;;;;18.17;4.30;;;;;;;;;;4900752;29;20507;-79
2023/09/29 02:20:57;;;;;;;11.55;3.90;;;;;;;;;;4901368;29;20025;-79
2023/09/29 02:23:23;;;;;;;12.38;4.20;;;;;;;;;;4901168;29;20103;-79
2023/09/29 02:25:51;;;;;;;11.15;4.25;;;;;;;;;;4900490;29;20072;-79
2023/09/29 02:28:19;;;;;;;10.95;4.10;;;;;;;;;;4898613;29;20056;-79
2023/09/29 02:30:46;;;;;;;14.05;3.80;;;;;;;;;;4899402;29;20468;-79
2023/09/29 02:33:12;;;;;;;14.95;4.53;;;;;;;;;;4899979;29;20088;-79
2023/09/29 02:35:38;;;;;;;14.73;4.10;;;;;;;;;;4899668;29;20032;-79
2023/09/29 02:38:04;;;;;;;14.10;4.53;;;;;;;;;;4899247;29;20025;-79
2023/09/29 02:40:30;;;;;;;14.65;4.07;;;;;;;;;;4899500;29;20058;-79
2023/09/29 02:42:56;;;;;;;13.68;4.18;;;;;;;;;;4899319;29;20028;-79
2023/09/29 02:45:24;;;;;;;10.63;3.95;;;;;;;;;;4900155;29;20472;-79
2023/09/29 02:47:52;;;;;;;13.50;3.80;;;;;;;;;;4900144;29;20059;-79
2023/09/29 02:50:18;;;;;;;13.55;4.30;;;;;;;;;;4900339;29;20112;-79
2023/09/29 02:52:44;;;;;;;15.63;4.22;;;;;;;;;;4900844;29;20041;-79
2023/09/29 02:55:12;;;;;;;15.45;4.57;;;;;;;;;;4900510;29;20400;-79
2023/09/29 02:57:40;;;;;;;11.20;4.32;;;;;;;;;;4899432;29;20048;-79
2023/09/29 03:00:07;;;;;;;15.82;3.80;;;;;;;;;;4900587;29;20367;-79
2023/09/29 03:02:33;;;;;;;10.02;3.42;;;;;;;;;;4899912;29;20432;-79
2023/09/29 03:04:59;;;;;;;16.33;3.70;;;;;;;;;;4899510;29;20476;-79
2023/09/29 03:07:25;;;;;;;13.65;3.88;;;;;;;;;;4899333;29;20032;-79
2023/09/29 03:09:51;;;;;;;11.30;3.97;;;;;;;;;;4899568;29;20025;-79
2023/09/29 03:12:17;;;;;;;16.80;3.85;;;;;;;;;;4899792;29;20494;-79
2023/09/29 03:14:43;;;;;;;12.82;3.95;;;;;;;;;;4899356;29;20033;-79
2023/09/29 03:17:09;;;;;;;12.15;3.50;;;;;;;;;;4899597;29;20024;-79
2023/09/29 03:19:36;;;;;;;9.75;3.38;;;;;;;;;;4905690;29;20029;-79
2023/09/29 03:22:03;;;;;;;13.95;3.75;;;;;;;;;;4905662;29;20021;-79
2023/09/29 03:24:29;;;;;;;10.65;3.78;;;;;;;;;;4903948;29;20495;-79
2023/09/29 03:26:55;;;;;;;9.90;3.50;;;;;;;;;;4903519;29;20025;-79
2023/09/29 03:29:22;;;;;;;13.57;3.65;;;;;;;;;;4903386;29;20029;-79
2023/09/29 03:31:49;;;;;;;9.82;3.50;;;;;;;;;;4903332;29;20387;-79
2023/09/29 03:34:15;;;;;;;12.57;3.47;;;;;;;;;;4903296;29;20039;-79
2023/09/29 03:36:41;;;;;;;12.43;3.63;;;;;;;;;;4903247;29;20028;-79
2023/09/29 03:39:09;;;;;;;12.75;3.58;;;;;;;;;;4903835;29;20020;-79
2023/09/29 03:41:35;;;;;;;9.48;3.60;;;;;;;;;;4904258;29;20096;-79
2023/09/29 03:44:01;;;;;;;17.25;4.45;;;;;;;;;;4901314;29;20456;-79
2023/09/29 03:46:29;;;;;;;13.25;3.55;;;;;;;;;;4903232;29;20065;-79
2023/09/29 03:48:55;;;;;;;10.18;4.10;;;;;;;;;;4902418;29;20485;-79
2023/09/29 03:51:22;;;;;;;19.98;4.20;;;;;;;;;;4902316;29;20404;-79
2023/09/29 03:53:48;;;;;;;12.48;4.38;;;;;;;;;;4902536;29;20025;-79
2023/09/29 03:56:14;;;;;;;13.85;4.28;;;;;;;;;;4902680;29;20025;-79
2023/09/29 03:58:41;;;;;;;16.42;4.63;;;;;;;;;;4902109;29;20064;-79
2023/09/29 04:01:07;;;;;;;14.55;5.15;;;;;;;;;;4903001;29;20028;-79
2023/09/29 04:03:34;;;;;;;16.15;5.30;;;;;;;;;;4902267;29;20054;-79
2023/09/29 04:05:59;;;;;;;11.93;5.35;;;;;;;;;;4900593;29;20044;-79
2023/09/29 04:08:25;;;;;;;16.15;5.57;;;;;;;;;;4902277;29;20498;-79
2023/09/29 04:10:52;;;;;;;13.23;4.80;;;;;;;;;;4902441;29;20028;-79
2023/09/29 04:13:19;;;;;;;12.70;5.53;;;;;;;;;;4903483;29;20031;-79
2023/09/29 04:15:45;;;;;;;17.17;5.15;;;;;;;;;;4902534;29;20484;-79
2023/09/29 04:18:11;;;;;;;13.40;4.47;;;;;;;;;;4902874;29;20028;-79
2023/09/29 04:20:37;;;;;;;12.40;4.53;;;;;;;;;;4902465;29;20033;-79
2023/09/29 04:23:06;;;;;;;15.43;4.22;;;;;;;;;;4902252;29;20502;-79
2023/09/29 04:25:32;;;;;;;10.80;4.50;;;;;;;;;;4902144;29;20033;-79
2023/09/29 04:27:59;;;;;;;15.07;5.60;;;;;;;;;;4902010;29;20434;-79
2023/09/29 04:30:25;;;;;;;13.88;4.22;;;;;;;;;;4900501;29;20033;-79
2023/09/29 04:32:52;;;;;;;15.57;4.45;;;;;;;;;;4901282;29;20025;-79
2023/09/29 04:35:18;;;;;;;13.43;4.55;;;;;;;;;;4901680;29;20029;-79
2023/09/29 04:37:44;;;;;;;15.23;4.05;;;;;;;;;;4901354;29;20021;-79
2023/09/29 04:40:11;;;;;;;12.35;4.40;;;;;;;;;;4901801;29;20384;-79
2023/09/29 04:42:37;;;;;;;13.75;3.95;;;;;;;;;;4902371;29;20036;-79
2023/09/29 04:45:04;;;;;;;10.43;3.75;;;;;;;;;;4901808;29;20043;-79
2023/09/29 04:47:30;;;;;;;10.07;3.75;;;;;;;;;;4902402;29;20395;-79
2023/09/29 04:49:56;;;;;;;10.23;3.30;;;;;;;;;;4903177;29;20102;-79
2023/09/29 04:52:22;;;;;;;12.93;3.90;;;;;;;;;;4902271;29;20029;-79
2023/09/29 04:54:48;;;;;;;12.95;4.28;;;;;;;;;;4902386;29;20035;-79
2023/09/29 04:57:15;;;;;;;9.75;3.47;;;;;;;;;;4901437;29;20490;-79
2023/09/29 04:59:41;;;;;;;11.70;3.53;;;;;;;;;;4903269;29;20459;-79
2023/09/29 05:02:07;;;;;;;11.70;3.72;;;;;;;;;;4902874;29;20035;-79
2023/09/29 05:04:33;;;;;;;12.40;3.45;;;;;;;;;;4902311;29;20028;-79
2023/09/29 05:06:59;;;;;;;12.50;3.60;;;;;;;;;;4901712;29;20052;-79
2023/09/29 05:09:25;;;;;;;11.20;3.58;;;;;;;;;;4902260;29;20028;-79
2023/09/29 05:11:51;;;;;;;8.18;3.03;;;;;;;;;;4901954;29;20029;-79
2023/09/29 05:14:16;;;;;;;14.85;3.78;;;;;;;;;;4902043;29;20468;-79
2023/09/29 05:16:43;;;;;;;9.10;3.30;;;;;;;;;;4902799;29;20025;-79
2023/09/29 05:19:10;;;;;;;12.85;3.78;;;;;;;;;;4902619;29;20539;-79
2023/09/29 05:21:36;;;;;;;11.50;3.33;;;;;;;;;;4902885;29;20489;-79
2023/09/29 05:24:02;;;;;;;9.45;3.42;;;;;;;;;;4902794;29;20028;-80
2023/09/29 05:26:28;;;;;;;11.40;3.63;;;;;;;;;;4902803;29;20083;-79
2023/09/29 05:28:55;;;;;;;11.77;3.80;;;;;;;;;;4902684;29;20029;-79
2023/09/29 05:31:21;;;;;;;12.63;3.67;;;;;;;;;;4902939;29;20108;-79
2023/09/29 05:33:47;;;;;;;10.40;3.75;;;;;;;;;;4903522;29;20039;-79
2023/09/29 05:36:13;;;;;;;11.07;3.75;;;;;;;;;;4905445;29;20384;-79
2023/09/29 05:38:39;;;;;;;10.80;3.25;;;;;;;;;;4904979;29;20107;-79
2023/09/29 05:41:05;;;;;;;13.07;4.00;;;;;;;;;;4906009;29;20029;-79
2023/09/29 05:43:31;;;;;;;14.13;3.53;;;;;;;;;;4905430;29;20033;-79
2023/09/29 05:45:58;;;;;;;11.73;3.70;;;;;;;;;;4904326;29;20478;-79
2023/09/29 05:48:24;;;;;;;8.13;3.72;;;;;;;;;;4903640;29;20032;-79
2023/09/29 05:50:50;;;;;;;12.15;3.75;;;;;;;;;;4900093;29;20033;-79
2023/09/29 05:53:16;;;;;;;8.70;3.60;;;;;;;;;;4900839;29;20104;-79
2023/09/29 05:55:42;;;;;;;11.35;3.50;;;;;;;;;;4900010;29;20462;-79
2023/09/29 05:58:08;;;;;;;10.85;3.58;;;;;;;;;;4900207;29;20044;-79
2023/09/29 06:00:35;;;;;;;8.90;3.47;;;;;;;;;;4900535;29;20384;-79
2023/09/29 06:03:01;;;;;;;7.50;3.60;;;;;;;;;;4899705;29;20032;-80
2023/09/29 06:05:27;;;;;;;10.45;3.95;;;;;;;;;;4899477;29;20041;-79
2023/09/29 06:07:53;;;;;;;7.55;3.30;;;;;;;;;;4898453;29;20035;-80
2023/09/29 06:10:19;;;;;;;12.60;4.18;;;;;;;;;;4898988;29;20027;-79
2023/09/29 06:12:45;;;;;;;12.02;4.00;;;;;;;;;;4900026;29;20032;-79
2023/09/29 06:15:11;;;;;;;14.85;4.18;;;;;;;;;;4899587;29;20032;-79
2023/09/29 06:17:37;;;;;;;8.82;3.40;;;;;;;;;;4899575;29;20039;-79
2023/09/29 06:20:04;;;;;;;11.23;3.45;;;;;;;;;;4899307;29;20025;-79
2023/09/29 06:22:30;;;;;;;10.52;4.03;;;;;;;;;;4899346;29;20028;-79
2023/09/29 06:24:56;;;;;;;11.55;3.70;;;;;;;;;;4899861;29;20036;-79
2023/09/29 06:27:22;;;;;;;11.82;3.75;;;;;;;;;;4899264;29;20035;-79
2023/09/29 06:29:50;;;;;;;11.82;3.70;;;;;;;;;;4898962;29;20029;-79
2023/09/29 06:32:16;;;;;;;8.23;3.60;;;;;;;;;;4899881;29;20028;-79
2023/09/29 06:34:42;;;;;;;6.25;3.10;;;;;;;;;;4899892;29;20111;-79
2023/09/29 06:37:09;;;;;;;11.13;3.60;;;;;;;;;;4899757;29;20064;-79
2023/09/29 06:39:35;;;;;;;8.27;3.30;;;;;;;;;;4899745;29;20075;-79
2023/09/29 06:42:01;;;;;;;8.75;3.28;;;;;;;;;;4903545;29;20384;-79
2023/09/29 06:44:27;;;;;;;9.05;4.30;;;;;;;;;;4904979;29;20038;-79
2023/09/29 06:46:53;;;;;;;9.85;3.38;;;;;;;;;;4904766;29;20503;-81
2023/09/29 06:49:19;;;;;;;9.30;3.28;;;;;;;;;;4902934;29;20032;-80
2023/09/29 06:51:45;;;;;;;11.68;3.42;;;;;;;;;;4904666;29;20032;-82
2023/09/29 06:54:12;;;;;;;10.15;3.40;;;;;;;;;;4907981;29;20040;-82
2023/09/29 06:56:38;;;;;;;8.85;3.17;;;;;;;;;;4905722;29;20032;-81
2023/09/29 06:59:04;;;;;;;8.73;3.38;;;;;;;;;;4905363;29;20570;-82
2023/09/29 07:01:30;;;;;;;7.75;3.00;;;;;;;;;;4905830;29;20025;-82
2023/09/29 07:03:56;;;;;;;9.57;3.65;;;;;;;;;;4905050;29;20028;-81
2023/09/29 07:06:23;;;;;;;10.25;3.30;;;;;;;;;;4905847;29;20103;-81
2023/09/29 07:08:49;;;;;;;7.90;3.60;;;;;;;;;;4906302;29;20024;-82
2023/09/29 07:11:15;;;;;;;9.23;3.10;;;;;;;;;;4906085;29;20032;-82
2023/09/29 07:13:41;;;;;;;8.75;3.72;;;;;;;;;;4905485;29;20025;-82
2023/09/29 07:16:07;;;;;;;7.35;3.40;;;;;;;;;;4903803;29;20036;-82
2023/09/29 07:18:34;;;;;;;8.85;3.70;;;;;;;;;;4905014;29;20085;-81
2023/09/29 07:21:00;;;;;;;12.52;3.50;;;;;;;;;;4905429;29;20035;-81
2023/09/29 07:23:28;;;;;;;6.45;3.28;;;;;;;;;;4905403;29;20052;-81
2023/09/29 07:25:54;;;;;;;7.35;3.25;;;;;;;;;;4904867;29;20037;-82
2023/09/29 07:28:21;;;;;;;6.70;2.92;;;;;;;;;;4906571;29;20055;-82
2023/09/29 07:30:47;;;;;;;6.90;3.15;;;;;;;;;;4911205;29;20104;-82
2023/09/29 07:33:13;;;;;;;6.65;3.20;;;;;;;;;;4906928;29;20472;-82
2023/09/29 07:35:39;;;;;;;9.90;3.53;;;;;;;;;;4911087;29;20075;-82
2023/09/29 07:38:06;;;;;;;9.18;3.50;;;;;;;;;;4910130;29;20027;-81
2023/09/29 07:40:35;;;;;;;7.32;3.53;;;;;;;;;;4908664;29;20021;-78
2023/09/29 07:43:01;;;;;;;5.37;3.00;;;;;;;;;;4906075;29;20028;-77
2023/09/29 07:45:27;;;;;;;7.05;3.22;;;;;;;;;;4905994;29;20119;-78
2023/09/29 07:47:53;;;;;;;5.90;3.28;;;;;;;;;;4905571;29;20482;-78
2023/09/29 07:50:19;;;;;;;6.10;2.85;;;;;;;;;;4905931;29;20095;-78
2023/09/29 07:52:46;;;;;;;5.80;3.08;;;;;;;;;;4906188;29;20036;-79
2023/09/29 07:55:12;;;;;;;5.35;2.75;;;;;;;;;;4905972;29;20032;-79
2023/09/29 07:57:39;;;;;;;5.70;2.90;;;;;;;;;;4905167;29;20088;-79
2023/09/29 08:00:05;;;;;;;10.73;3.40;;;;;;;;;;4905105;29;20031;-78
2023/09/29 08:02:31;;;;;;;8.50;3.75;;;;;;;;;;4905763;29;20031;-78
2023/09/29 08:04:58;;;;;;;6.32;2.55;;;;;;;;;;4902998;29;20036;-79
2023/09/29 08:07:24;;;;;;;8.27;2.90;;;;;;;;;;4902273;29;20031;-77
2023/09/29 08:09:50;;;;;;;6.90;3.05;;;;;;;;;;4901876;29;20033;-77
2023/09/29 08:12:20;;;;;;;8.52;3.10;;;;;;;;;;4902586;29;20029;-77
2023/09/29 08:14:47;;;;;;;;;;;;;;;;;;4903182;29;20036;-77
2023/09/29 08:17:13;;;;;;;6.47;3.33;;;;;;;;;;4902174;29;19931;-77
2023/09/29 08:19:42;;;;;;;5.43;3.00;;;;;;;;;;4902011;29;20035;-77
2023/09/29 08:22:08;;;;;;;7.47;3.40;;;;;;;;;;4901754;29;20024;-77
2023/09/29 08:24:34;;;;;;;7.72;2.78;;;;;;;;;;4901118;29;20492;-79
2023/09/29 08:27:00;;;;;;;6.82;2.90;;;;;;;;;;4902718;29;20471;-78
2023/09/29 08:29:26;;;;;;;6.88;2.80;;;;;;;;;;4902489;29;20050;-78
2023/09/29 08:31:54;;;;;;;6.15;2.83;;;;;;;;;;4902783;29;20056;-78
2023/09/29 08:34:20;;;;;;;5.47;2.88;;;;;;;;;;4899952;29;20028;-78
2023/09/29 08:36:46;;;;;;;7.10;2.75;;;;;;;;;;4901435;29;20025;-79
2023/09/29 08:39:12;;;;;;;5.15;2.58;;;;;;;;;;4901488;29;20459;-79
2023/09/29 08:41:43;;;;;;;5.22;3.05;;;;;;;;;;4901422;29;20112;-79
2023/09/29 08:44:11;;;;;;;5.68;2.75;;;;;;;;;;4901234;29;20028;-79
2023/09/29 08:46:40;;;;;;;5.25;3.03;;;;;;;;;;4900768;29;20033;-81
2023/09/29 08:49:08;;;;;;;6.97;3.50;;;;;;;;;;4899437;29;20028;-81
2023/09/29 08:51:36;;;;;;;9.13;3.00;;;;;;;;;;4900571;29;20387;-81
2023/09/29 08:54:03;;;;;;;6.53;3.08;;;;;;;;;;4900758;29;20416;-81
2023/09/29 08:56:30;;;;;;;5.68;2.72;;;;;;;;;;4899353;29;20048;-81
2023/09/29 08:58:56;;;;;;;5.65;2.65;;;;;;;;;;4900270;29;20048;-81
2023/09/29 09:01:23;;;;;;;6.45;3.00;;;;;;;;;;4900299;29;20025;-81
2023/09/29 09:03:49;;;;;;;3.60;2.42;;;;;;;;;;4900759;29;20033;-81
2023/09/29 09:06:22;;;;;;;7.20;3.05;;;;;;;;;;4899245;29;20104;-81
2023/09/29 09:08:50;;;;;;;8.07;2.90;;;;;;;;;;4900570;29;20031;-81
2023/09/29 09:11:16;;;;;;;5.93;3.05;;;;;;;;;;4900450;29;20035;-81
2023/09/29 09:13:41;;;;;;;7.15;2.95;;;;;;;;;;4900273;29;20107;-81
2023/09/29 09:16:09;;;;;;;8.98;3.17;;;;;;;;;;4900113;29;20467;-81
2023/09/29 09:18:36;;;;;;;7.70;3.15;;;;;;;;;;4900071;29;20063;-81
2023/09/29 09:21:02;;;;;;;6.35;3.05;;;;;;;;;;4900105;29;20029;-81
2023/09/29 09:23:37;;;;;;;6.28;3.03;;;;;;;;;;4900832;29;20035;-81
2023/09/29 09:26:11;;;;;;;7.38;3.05;;;;;;;;;;4901037;29;20399;-81
2023/09/29 09:28:38;;;;;;;5.63;3.13;;;;;;;;;;4900123;29;20387;-81
2023/09/29 09:31:03;;;;;;;5.70;3.28;;;;;;;;;;4900565;29;20021;-81
2023/09/29 09:33:31;;;;;;;7.22;3.38;;;;;;;;;;4900087;29;20064;-80
2023/09/29 09:36:05;;;;;;;7.32;3.28;;;;;;;;;;4899982;29;20032;-81
2023/09/29 09:38:34;;;;;;;4.40;3.05;;;;;;;;;;4900108;29;20063;-81
2023/09/29 09:41:04;;;;;;;7.13;2.95;;;;;;;;;;4899815;29;20020;-81
2023/09/29 09:43:34;;;;;;;5.85;3.40;;;;;;;;;;4899662;29;20032;-80
2023/09/29 09:46:06;;;;;;;7.43;3.50;;;;;;;;;;4900146;29;20069;-81
2023/09/29 09:48:39;;;;;;;5.05;2.97;;;;;;;;;;4899688;29;20032;-81
2023/09/29 09:51:07;;;;;;;6.63;3.10;;;;;;;;;;4900004;29;20033;-82
2023/09/29 09:53:34;;;;;;;6.82;2.92;;;;;;;;;;4899595;29;20021;-83
2023/09/29 09:56:07;;;;;;;7.05;3.55;;;;;;;;;;4899331;29;20112;-83
2023/09/29 09:58:33;;;;;;;5.70;3.08;;;;;;;;;;4901223;29;20052;-84
2023/09/29 10:00:59;;;;;;;9.57;3.28;;;;;;;;;;4899746;29;20029;-83
2023/09/29 10:03:27;;;;;;;7.65;3.17;;;;;;;;;;4900648;29;20036;-83
2023/09/29 10:05:53;;;;;;;6.63;3.17;;;;;;;;;;4899348;29;20044;-83
2023/09/29 10:08:33;;;;;;;5.80;3.00;;;;;;;;;;4900379;29;20025;-83
2023/09/29 10:11:11;;;;;;;6.50;2.60;;;;;;;;;;4900202;29;20032;-83
2023/09/29 10:13:38;;;;;;;8.33;2.90;;;;;;;;;;4899149;29;20025;-83
2023/09/29 10:16:07;;;;;;;7.55;3.70;;;;;;;;;;4899064;29;20275;-82
2023/09/29 10:18:34;;;;;;;6.55;3.00;;;;;;;;;;4899030;29;20028;-83
2023/09/29 10:21:06;;;;;;;5.53;3.20;;;;;;;;;;4899028;29;20488;-82
2023/09/29 10:23:44;;;;;;;6.00;3.97;;;;;;;;;;4898908;29;20028;-82
2023/09/29 10:26:10;;;;;;;7.10;3.30;;;;;;;;;;4899489;29;20060;-81
2023/09/29 10:28:41;;;;;;;7.00;3.53;;;;;;;;;;4898847;29;20111;-81
2023/09/29 10:31:08;;;;;;;8.23;3.47;;;;;;;;;;4899198;29;20029;-81
2023/09/29 10:33:44;;;;;;;5.90;3.45;;;;;;;;;;4899980;29;20092;-81
2023/09/29 10:36:11;;;;;;;8.38;3.20;;;;;;;;;;4900587;29;20032;-82
2023/09/29 10:38:40;;;;;;;5.55;2.95;;;;;;;;;;4900514;29;20029;-81
2023/09/29 10:41:07;;;;;;;9.10;3.08;;;;;;;;;;4897339;29;20033;-81
2023/09/29 10:43:35;;;;;;;8.85;3.10;;;;;;;;;;4899102;29;20424;-81
2023/09/29 10:46:08;;;;;;;6.68;3.15;;;;;;;;;;4897263;29;20067;-81
2023/09/29 10:48:36;;;;;;;7.55;3.42;;;;;;;;;;4899161;29;20120;-81
2023/09/29 10:51:02;;;;;;;4.35;1.40;;;;;;;;;;4899597;29;20033;-81
2023/09/29 10:53:36;;;;;;;4.93;1.17;;;;;;;;;;4899592;29;20036;-81
2023/09/29 10:56:03;;;;;;;2.30;0.80;;;;;;;;;;4897465;29;20028;-81
2023/09/29 10:58:36;;;;;;;3.28;1.10;;;;;;;;;;4899196;29;20048;-81
2023/09/29 11:01:02;;;;;;;1.65;0.88;;;;;;;;;;4899398;29;20033;-81
2023/09/29 11:03:30;;;;;;;2.35;1.00;;;;;;;;;;4898752;29;20024;-81
2023/09/29 11:05:57;;;;;;;3.25;0.90;;;;;;;;;;4899049;29;20359;-81
2023/09/29 11:08:34;;;;;;;3.40;0.90;;;;;;;;;;4899678;29;20413;-81
2023/09/29 11:11:02;;;;;;;2.47;0.80;;;;;;;;;;4899363;29;20391;-81
2023/09/29 11:13:29;;;;;;;3.33;1.08;;;;;;;;;;4899334;29;20089;-81
2023/09/29 11:15:56;;;;;;;3.45;1.40;;;;;;;;;;4898706;29;20035;-82
2023/09/29 11:18:25;;;;;;;5.13;1.40;;;;;;;;;;4899367;29;20383;-81
2023/09/29 11:20:52;;;;;;;4.43;1.23;;;;;;;;;;4899647;29;20043;-81
2023/09/29 11:23:19;;;;;;;4.40;1.30;;;;;;;;;;4899278;29;20028;-81
2023/09/29 11:25:54;;;;;;;6.60;1.60;;;;;;;;;;4898357;29;20111;-83
2023/09/29 11:28:20;;;;;;;3.25;1.13;;;;;;;;;;4898773;29;20067;-82
2023/09/29 11:30:47;;;;;;;3.40;1.25;;;;;;;;;;4898559;29;20118;-82
2023/09/29 11:33:14;;;;;;;3.92;1.20;;;;;;;;;;4896915;29;20029;-82
2023/09/29 11:35:45;;;;;;;2.90;0.95;;;;;;;;;;4898427;29;20025;-83
2023/09/29 11:38:16;;;;;;;3.42;1.45;;;;;;;;;;4899163;29;20035;-83
2023/09/29 11:40:42;;;;;;;1.52;0.65;;;;;;;;;;4903721;29;20380;-83
2023/09/29 11:43:08;;;;;;;2.50;0.60;;;;;;;;;;4902602;29;20383;-83
2023/09/29 11:45:35;;;;;;;2.53;0.80;;;;;;;;;;4902577;29;20032;-83
2023/09/29 11:48:01;;;;;;;2.83;0.60;;;;;;;;;;4902754;29;20080;-83
2023/09/29 11:50:28;;;;;;;3.05;0.73;;;;;;;;;;4901730;29;20032;-82
2023/09/29 11:52:54;;;;;;;1.90;0.70;;;;;;;;;;4902268;29;20021;-82
2023/09/29 11:55:20;;;;;;;2.55;0.60;;;;;;;;;;4901660;29;20032;-82
2023/09/29 11:57:48;;;;;;;1.85;0.60;;;;;;;;;;4901104;29;20543;-82
2023/09/29 12:00:14;;;;;;;3.25;0.70;;;;;;;;;;4901588;29;20399;-82
2023/09/29 12:02:40;;;;;;;3.55;0.57;;;;;;;;;;4901790;29;20035;-82
2023/09/29 12:05:09;;;;;;;2.60;0.88;;;;;;;;;;4901925;29;20029;-82
2023/09/29 12:07:35;;;;;;;3.10;0.70;;;;;;;;;;4902027;29;20036;-82
2023/09/29 12:10:01;;;;;;;2.13;0.43;;;;;;;;;;4899920;29;20025;-82
2023/09/29 12:12:27;;;;;;;3.10;0.60;;;;;;;;;;4901103;29;20028;-82
2023/09/29 12:14:54;;;;;;;2.72;0.68;;;;;;;;;;4901423;29;20107;-81
2023/09/29 12:17:20;;;;;;;4.90;0.63;;;;;;;;;;4901004;29;20021;-81
2023/09/29 12:19:47;;;;;;;2.13;0.73;;;;;;;;;;4901046;29;20032;-81
2023/09/29 12:22:14;;;;;;;6.05;0.80;;;;;;;;;;4901254;29;20029;-81
2023/09/29 12:24:40;;;;;;;3.40;0.60;;;;;;;;;;4902805;29;20032;-81
2023/09/29 12:27:07;;;;;;;2.08;0.55;;;;;;;;;;4904328;29;20076;-81
2023/09/29 12:29:34;;;;;;;2.05;0.60;;;;;;;;;;4901516;29;20039;-81
2023/09/29 12:32:00;;;;;;;2.47;0.60;;;;;;;;;;4901350;29;20104;-82
2023/09/29 12:34:28;;;;;;;2.28;0.55;;;;;;;;;;4900988;29;20444;-82
2023/09/29 12:36:55;;;;;;;4.13;0.70;;;;;;;;;;4901089;29;20021;-82
2023/09/29 12:39:21;;;;;;;2.17;0.57;;;;;;;;;;4901730;29;20047;-82
2023/09/29 12:41:47;;;;;;;2.85;0.77;;;;;;;;;;4901763;29;20084;-82
2023/09/29 12:44:13;;;;;;;4.05;0.52;;;;;;;;;;4901676;29;20426;-82
2023/09/29 12:46:39;;;;;;;3.22;0.60;;;;;;;;;;4901201;29;20403;-82
2023/09/29 12:49:07;;;;;;;1.98;0.63;;;;;;;;;;4900764;29;20103;-82
2023/09/29 12:51:33;;;;;;;2.78;0.75;;;;;;;;;;4898288;29;20033;-82
2023/09/29 12:53:59;;;;;;;4.93;1.00;;;;;;;;;;4900994;29;20107;-82
2023/09/29 12:56:26;;;;;;;4.57;1.38;;;;;;;;;;4901307;29;20115;-82
2023/09/29 12:58:52;;;;;;;2.58;1.02;;;;;;;;;;4901486;29;20060;-82
2023/09/29 13:01:18;;;;;;;5.70;1.00;;;;;;;;;;4900654;29;20036;-81
2023/09/29 13:03:44;;;;;;;3.60;1.10;;;;;;;;;;4903328;29;20033;-81
2023/09/29 13:06:11;;;;;;;1.73;0.88;;;;;;;;;;4901669;29;20373;-82
2023/09/29 13:08:37;;;;;;;4.75;1.00;;;;;;;;;;4901213;29;20044;-82
2023/09/29 13:11:03;;;;;;;8.38;1.58;;;;;;;;;;4901352;29;20456;-82
2023/09/29 13:13:29;;;;;;;4.57;1.50;;;;;;;;;;4901143;29;20104;-82
2023/09/29 13:15:55;;;;;;;7.65;1.90;;;;;;;;;;4900809;29;20391;-81
2023/09/29 13:18:22;;;;;;;4.97;1.23;;;;;;;;;;4901006;29;20107;-81
2023/09/29 13:20:48;;;;;;;6.20;1.73;;;;;;;;;;4902564;29;20020;-81
2023/09/29 13:23:18;;;;;;;5.43;1.83;;;;;;;;;;4901396;29;20077;-81
2023/09/29 13:25:44;;;;;;;6.95;1.85;;;;;;;;;;4901624;29;20398;-83
2023/09/29 13:28:10;;;;;;;7.57;1.95;;;;;;;;;;4901499;29;20043;-82
2023/09/29 13:30:36;;;;;;;8.60;2.58;;;;;;;;;;4900396;29;20063;-81
2023/09/29 13:33:02;;;;;;;8.10;1.92;;;;;;;;;;4901731;29;20384;-81
2023/09/29 13:35:28;;;;;;;9.35;2.00;;;;;;;;;;4900441;29;20029;-81
2023/09/29 13:37:55;;;;;;;9.95;1.92;;;;;;;;;;4900012;29;20036;-81
2023/09/29 13:40:21;;;;;;;7.20;2.20;;;;;;;;;;4901053;29;20024;-82
2023/09/29 13:42:50;;;;;;;7.53;2.17;;;;;;;;;;4900626;29;20484;-81
2023/09/29 13:45:17;;;;;;;9.20;2.27;;;;;;;;;;4899976;29;20054;-81
2023/09/29 13:47:43;;;;;;;9.00;1.88;;;;;;;;;;4901318;29;20421;-81
2023/09/29 13:50:11;;;;;;;8.75;1.90;;;;;;;;;;4901679;29;20024;-81
2023/09/29 13:52:37;;;;;;;6.03;1.88;;;;;;;;;;4903891;29;20053;-81
2023/09/29 13:55:08;;;;;;;8.13;2.03;;;;;;;;;;4904677;29;20075;-81
2023/09/29 13:57:34;;;;;;;5.78;1.55;;;;;;;;;;4901939;29;20041;-81
2023/09/29 14:00:00;;;;;;;6.97;1.40;;;;;;;;;;4902942;29;20426;-82
2023/09/29 14:02:26;;;;;;;6.50;1.50;;;;;;;;;;4900039;29;20028;-81
2023/09/29 14:04:52;;;;;;;6.70;1.98;;;;;;;;;;4900307;29;20033;-80
2023/09/29 14:07:18;;;;;;;5.90;1.58;;;;;;;;;;4900271;29;20039;-80
2023/09/29 14:09:44;;;;;;;7.30;1.88;;;;;;;;;;4899709;29;20463;-80
2023/09/29 14:12:10;;;;;;;8.68;1.70;;;;;;;;;;4900397;29;20036;-80
2023/09/29 14:14:37;;;;;;;10.63;2.45;;;;;;;;;;4900397;29;20021;-81
2023/09/29 14:17:04;;;;;;;8.13;2.78;;;;;;;;;;4899903;29;20028;-80
2023/09/29 14:19:30;;;;;;;9.40;2.85;;;;;;;;;;4900186;29;20082;-80
2023/09/29 14:21:56;;;;;;;9.13;2.28;;;;;;;;;;4900601;29;20025;-83
2023/09/29 14:24:22;;;;;;;12.35;2.90;;;;;;;;;;4898326;29;20027;-81
2023/09/29 14:26:48;;;;;;;12.27;3.03;;;;;;;;;;4899781;29;20117;-81
2023/09/29 14:29:16;;;;;;;10.95;3.15;;;;;;;;;;4898707;29;20029;-81
2023/09/29 14:31:44;;;;;;;8.43;3.08;;;;;;;;;;4899034;29;20064;-80
2023/09/29 14:34:15;;;;;;;13.13;3.72;;;;;;;;;;4899065;29;20467;-80
2023/09/29 14:36:41;;;;;;;10.82;3.38;;;;;;;;;;4899350;29;20367;-81
2023/09/29 14:39:07;;;;;;;10.25;2.95;;;;;;;;;;4898684;29;20391;-81